createdAt,value
2023-03-04T00:00:45.649Z,3.10
2023-03-04T00:05:47.291Z,3.05
2023-03-04T00:10:48.658Z,3.00
2023-03-04T00:15:50.046Z,2.91
2023-03-04T00:20:51.450Z,2.86
2023-03-04T00:25:52.900Z,2.83
2023-03-04T00:30:54.254Z,2.78
2023-03-04T00:35:55.926Z,2.73
2023-03-04T00:40:57.352Z,2.72
2023-03-04T00:45:59.775Z,2.68
2023-03-04T00:51:01.130Z,2.67
2023-03-04T00:56:02.501Z,2.63
2023-03-04T01:01:03.984Z,2.66
2023-03-04T01:06:05.643Z,2.72
2023-03-04T01:11:07.446Z,2.76
2023-03-04T01:16:10.218Z,2.79
2023-03-04T01:21:11.631Z,2.76
2023-03-04T01:26:13.022Z,2.78
2023-03-04T01:31:14.475Z,2.77
2023-03-04T01:36:15.888Z,2.66
2023-03-04T01:41:22.406Z,2.79
2023-03-04T01:46:24.289Z,2.96
2023-03-04T01:51:25.794Z,3.06
2023-03-04T01:56:35.552Z,3.28
2023-03-04T02:01:38.758Z,3.48
2023-03-04T02:06:41.236Z,3.67
2023-03-04T02:11:44.425Z,3.79
2023-03-04T02:16:46.894Z,3.88
2023-03-04T02:21:48.330Z,4.03
2023-03-04T02:26:49.736Z,4.12
2023-03-04T02:31:53.404Z,4.23
2023-03-04T02:36:55.897Z,4.31
2023-03-04T02:41:58.145Z,4.39
2023-03-04T02:47:00.459Z,4.40
2023-03-04T02:52:03.604Z,4.43
2023-03-04T02:57:07.932Z,4.48
2023-03-04T03:02:10.250Z,4.55
2023-03-04T03:07:11.692Z,4.63
2023-03-04T03:12:13.095Z,4.64
2023-03-04T03:17:14.468Z,4.61
2023-03-04T03:22:15.877Z,4.60
2023-03-04T03:27:17.293Z,4.59
2023-03-04T03:32:18.723Z,4.60
2023-03-04T03:37:20.275Z,4.67
2023-03-04T03:42:21.632Z,4.69
2023-03-04T03:47:23.137Z,4.77
2023-03-04T03:52:24.536Z,4.89
2023-03-04T03:57:25.938Z,4.97
2023-03-04T04:02:27.587Z,5.08
2023-03-04T04:07:29.075Z,5.13
2023-03-04T04:12:30.690Z,5.18
2023-03-04T04:17:32.113Z,5.19
2023-03-04T04:22:34.038Z,5.19
2023-03-04T04:27:35.477Z,5.16
2023-03-04T04:32:37.032Z,5.16
2023-03-04T04:37:38.392Z,5.04
2023-03-04T04:42:39.739Z,4.96
2023-03-04T04:47:41.122Z,4.89
2023-03-04T04:52:42.605Z,4.86
2023-03-04T04:57:44.064Z,4.82
2023-03-04T05:02:45.550Z,4.85
2023-03-04T05:07:46.907Z,4.92
2023-03-04T05:12:49.706Z,4.93
2023-03-04T05:17:51.119Z,4.96
2023-03-04T05:22:52.523Z,5.02
2023-03-04T05:27:53.885Z,5.08
2023-03-04T05:32:55.230Z,5.11
2023-03-04T05:37:56.579Z,5.08
2023-03-04T05:42:58.082Z,5.19
2023-03-04T05:48:00.125Z,5.25
2023-03-04T05:53:01.541Z,5.26
2023-03-04T05:58:02.976Z,5.31
2023-03-04T06:03:04.443Z,5.31
2023-03-04T06:08:05.912Z,5.46
2023-03-04T06:13:08.017Z,5.50
2023-03-04T06:18:09.465Z,5.59
2023-03-04T06:23:10.892Z,5.73
2023-03-04T06:28:12.303Z,5.79
2023-03-04T06:33:13.701Z,5.82
2023-03-04T06:38:15.341Z,5.91
2023-03-04T06:43:16.870Z,6.03
2023-03-04T06:48:18.211Z,6.01
2023-03-04T06:53:19.601Z,6.07
2023-03-04T06:58:20.953Z,6.03
2023-03-04T07:03:22.574Z,6.00
2023-03-04T07:08:23.921Z,6.01
2023-03-04T07:13:25.323Z,6.08
2023-03-04T07:18:26.857Z,6.21
2023-03-04T07:23:28.331Z,6.32
2023-03-04T07:28:29.846Z,6.40
2023-03-04T07:33:31.192Z,6.49
2023-03-04T07:38:32.916Z,6.41
2023-03-04T07:43:34.411Z,6.59
2023-03-04T07:48:37.112Z,6.43
2023-03-04T07:53:39.977Z,6.42
2023-03-04T07:58:41.934Z,6.55
2023-03-04T08:03:43.617Z,6.75
2023-03-04T08:08:46.013Z,6.82
2023-03-04T08:13:48.723Z,6.85
2023-03-04T08:18:52.692Z,6.85
2023-03-04T08:23:55.053Z,6.83
2023-03-04T08:28:57.553Z,6.74
2023-03-04T08:33:59.012Z,6.88
2023-03-04T08:39:00.462Z,6.87
2023-03-04T08:44:02.003Z,7.05
2023-03-04T08:49:04.210Z,6.92
2023-03-04T08:54:05.818Z,7.20
2023-03-04T08:59:07.188Z,7.34
2023-03-04T09:04:08.865Z,7.28
2023-03-04T09:09:10.308Z,7.45
2023-03-04T09:14:11.852Z,7.59
2023-03-04T09:19:13.242Z,7.30
2023-03-04T09:24:14.724Z,7.41
2023-03-04T09:29:16.077Z,7.26
2023-03-04T09:34:17.484Z,7.45
2023-03-04T09:39:18.929Z,7.59
2023-03-04T09:44:30.680Z,7.83
2023-03-04T09:49:32.363Z,7.85
2023-03-04T09:54:45.111Z,7.98
2023-03-04T10:00:07.830Z,7.91
2023-03-04T10:05:16.498Z,7.84
2023-03-04T10:10:40.179Z,7.75
2023-03-04T10:15:46.450Z,7.70
2023-03-04T10:21:06.664Z,8.09
2023-03-04T10:26:13.752Z,8.10
2023-03-04T10:31:29.030Z,8.11
2023-03-04T10:36:30.423Z,8.28
2023-03-04T10:41:32.330Z,8.44
2023-03-04T10:46:38.339Z,7.90
2023-03-04T10:52:03.582Z,8.09
2023-03-04T10:57:13.702Z,8.28
2023-03-04T11:02:15.056Z,8.32
2023-03-04T11:07:16.476Z,8.46
2023-03-04T11:12:22.132Z,8.56
2023-03-04T11:17:48.523Z,8.53
2023-03-04T11:22:51.802Z,8.61
2023-03-04T11:28:00.732Z,8.48
2023-03-04T11:33:26.986Z,8.42
2023-03-04T11:38:39.307Z,8.72
2023-03-04T11:43:46.603Z,8.82
2023-03-04T11:49:07.057Z,9.09
2023-03-04T11:54:32.361Z,9.08
2023-03-04T11:59:58.614Z,9.11
2023-03-04T12:05:17.431Z,9.10
2023-03-04T12:10:52.694Z,9.05
2023-03-04T12:16:00.331Z,9.50
2023-03-04T12:21:01.612Z,9.28
2023-03-04T12:26:08.566Z,9.18
2023-03-04T12:31:33.203Z,9.10
2023-03-04T12:36:37.282Z,9.12
2023-03-04T12:42:29.441Z,9.09
2023-03-04T12:47:51.158Z,9.20
2023-03-04T12:53:14.488Z,9.24
2023-03-04T12:58:19.900Z,9.50
2023-03-04T13:03:24.473Z,9.66
2023-03-04T13:08:33.343Z,9.44
2023-03-04T13:13:37.351Z,9.58
2023-03-04T13:18:39.489Z,9.52
2023-03-04T13:23:42.127Z,9.62
2023-03-04T13:28:43.831Z,9.50
2023-03-04T13:33:49.494Z,9.64
2023-03-04T13:39:21.881Z,9.67
2023-03-04T13:44:44.907Z,9.75
2023-03-04T13:55:33.342Z,9.82
2023-03-04T14:06:18.159Z,9.53
2023-03-04T14:11:38.466Z,9.60
2023-03-04T14:16:56.084Z,9.44
2023-03-04T14:21:59.448Z,9.48
2023-03-04T14:27:11.060Z,9.51
2023-03-04T14:32:12.849Z,9.32
2023-03-04T14:37:27.050Z,9.47
2023-03-04T14:42:39.215Z,9.49
2023-03-04T14:47:45.181Z,9.33
2023-03-04T14:52:51.573Z,9.44
2023-03-04T14:58:05.732Z,9.31
2023-03-04T15:03:21.743Z,9.33
2023-03-04T15:08:32.732Z,9.55
2023-03-04T15:13:50.405Z,9.41
2023-03-04T15:19:26.293Z,9.25
2023-03-04T15:24:27.648Z,9.29
2023-03-04T15:29:29.104Z,9.39
2023-03-04T15:34:31.380Z,9.44
2023-03-04T15:39:32.843Z,9.51
2023-03-04T15:44:34.234Z,9.45
2023-03-04T15:49:35.611Z,9.30
2023-03-04T15:54:36.991Z,9.22
2023-03-04T15:59:38.418Z,9.17
2023-03-04T16:04:39.798Z,9.09
2023-03-04T16:09:41.210Z,9.05
2023-03-04T16:14:44.270Z,9.00
2023-03-04T16:19:46.701Z,9.03
2023-03-04T16:24:48.105Z,9.13
2023-03-04T16:29:49.493Z,9.16
2023-03-04T16:34:50.865Z,9.09
2023-03-04T16:39:52.444Z,9.05
2023-03-04T16:44:55.206Z,9.04
2023-03-04T16:49:57.591Z,8.91
2023-03-04T16:55:00.154Z,8.79
2023-03-04T17:00:01.666Z,8.81
2023-03-04T17:05:04.202Z,8.78
2023-03-04T17:10:06.037Z,8.73
2023-03-04T17:15:09.927Z,8.71
2023-03-04T17:20:14.347Z,8.80
2023-03-04T17:25:16.021Z,8.68
2023-03-04T17:30:17.641Z,8.51
2023-03-04T17:35:19.328Z,8.54
2023-03-04T17:40:20.874Z,8.53
2023-03-04T17:45:22.294Z,8.59
2023-03-04T17:50:23.692Z,8.65
2023-03-04T17:55:26.339Z,8.54
2023-03-04T18:00:27.817Z,8.56
2023-03-04T18:05:29.234Z,8.46
2023-03-04T18:10:30.611Z,8.46
2023-03-04T18:15:32.147Z,8.44
2023-03-04T18:20:33.646Z,8.42
2023-03-04T18:25:35.095Z,8.32
2023-03-04T18:30:38.205Z,8.34
2023-03-04T18:35:39.651Z,8.29
2023-03-04T18:40:42.169Z,8.34
2023-03-04T18:45:43.701Z,8.22
2023-03-04T18:50:45.355Z,8.26
2023-03-04T18:55:46.829Z,8.28
2023-03-04T19:00:48.344Z,8.28
2023-03-04T19:05:49.976Z,8.32
2023-03-04T19:10:51.441Z,8.24
2023-03-04T19:15:54.441Z,8.26
2023-03-04T19:20:59.562Z,8.29
2023-03-04T19:26:01.080Z,8.39
2023-03-04T19:31:07.381Z,8.47
2023-03-04T19:36:09.566Z,8.53
2023-03-04T19:41:13.981Z,8.46
2023-03-04T19:46:15.981Z,8.40
2023-03-04T19:51:19.831Z,8.42
2023-03-04T19:56:23.925Z,8.49
2023-03-04T20:01:30.892Z,8.50
2023-03-04T20:06:35.954Z,8.61
2023-03-04T20:11:44.222Z,8.59
2023-03-04T20:16:48.722Z,8.58
2023-03-04T20:21:50.141Z,8.64
2023-03-04T20:26:52.129Z,8.57
2023-03-04T20:31:53.533Z,8.68
2023-03-04T20:36:54.940Z,8.80
2023-03-04T20:41:59.429Z,8.72
2023-03-04T20:47:01.620Z,8.61
2023-03-04T20:52:06.287Z,8.64
2023-03-04T20:57:08.605Z,8.59
2023-03-04T21:02:14.900Z,8.60
2023-03-04T21:07:16.516Z,8.64
2023-03-04T21:12:17.977Z,8.62
2023-03-04T21:17:19.371Z,8.56
2023-03-04T21:22:21.022Z,8.59
2023-03-04T21:27:22.521Z,8.38
2023-03-04T21:32:26.450Z,8.29
2023-03-04T21:37:27.936Z,8.43
2023-03-04T21:42:29.434Z,8.43
2023-03-04T21:47:30.809Z,8.47
2023-03-04T21:52:32.179Z,8.36
2023-03-04T21:57:33.561Z,8.24
2023-03-04T22:02:34.972Z,8.15
2023-03-04T22:07:36.407Z,8.01
2023-03-04T22:12:37.770Z,8.07
2023-03-04T22:17:39.227Z,8.13
2023-03-04T22:22:40.648Z,8.21
2023-03-04T22:27:42.023Z,8.26
2023-03-04T22:32:48.260Z,8.24
2023-03-04T22:37:49.669Z,8.23
2023-03-04T22:42:51.117Z,8.18
2023-03-04T22:47:52.849Z,8.21
2023-03-04T22:52:54.369Z,8.32
2023-03-04T22:57:55.735Z,8.45
2023-03-04T23:02:57.807Z,8.31
2023-03-04T23:07:59.641Z,8.28
2023-03-04T23:13:01.024Z,8.27
2023-03-04T23:18:02.444Z,8.22
2023-03-04T23:23:03.832Z,8.31
2023-03-04T23:28:05.362Z,8.36
2023-03-04T23:33:06.754Z,8.14
2023-03-04T23:38:08.122Z,8.04
2023-03-04T23:43:09.544Z,7.99
2023-03-04T23:48:10.906Z,7.95
2023-03-04T23:53:12.301Z,7.94
2023-03-04T23:58:13.693Z,7.90
